sensor_id;sensor_type;location;lat;lon;timestamp;temperature;humidity
20446;DHT22;10382;49.140;9.234;2022-09-03T00:01:22;19.70;97.60
20446;DHT22;10382;49.140;9.234;2022-09-03T00:03:54;19.70;98.10
20446;DHT22;10382;49.140;9.234;2022-09-03T00:06:26;19.70;98.40
20446;DHT22;10382;49.140;9.234;2022-09-03T00:09:02;19.70;98.40
20446;DHT22;10382;49.140;9.234;2022-09-03T00:11:37;19.60;98.90
20446;DHT22;10382;49.140;9.234;2022-09-03T00:14:08;19.60;99.20
20446;DHT22;10382;49.140;9.234;2022-09-03T00:16:44;19.60;99.20
20446;DHT22;10382;49.140;9.234;2022-09-03T00:19:15;19.60;99.50
20446;DHT22;10382;49.140;9.234;2022-09-03T00:21:45;19.60;99.90
20446;DHT22;10382;49.140;9.234;2022-09-03T00:24:18;19.60;99.60
20446;DHT22;10382;49.140;9.234;2022-09-03T00:26:49;19.70;99.50
20446;DHT22;10382;49.140;9.234;2022-09-03T00:29:22;19.70;99.70
20446;DHT22;10382;49.140;9.234;2022-09-03T00:31:52;19.60;99.00
20446;DHT22;10382;49.140;9.234;2022-09-03T00:34:23;19.50;99.40
20446;DHT22;10382;49.140;9.234;2022-09-03T00:36:52;19.50;99.50
20446;DHT22;10382;49.140;9.234;2022-09-03T00:39:22;19.50;99.90
20446;DHT22;10382;49.140;9.234;2022-09-03T00:42:09;19.50;99.90
20446;DHT22;10382;49.140;9.234;2022-09-03T00:44:56;19.60;99.90
20446;DHT22;10382;49.140;9.234;2022-09-03T00:50:18;19.60;99.90
20446;DHT22;10382;49.140;9.234;2022-09-03T00:52:58;19.50;99.90
20446;DHT22;10382;49.140;9.234;2022-09-03T00:55:33;19.40;99.90
20446;DHT22;10382;49.140;9.234;2022-09-03T00:58:14;19.30;99.90
20446;DHT22;10382;49.140;9.234;2022-09-03T01:00:46;19.10;99.90
20446;DHT22;10382;49.140;9.234;2022-09-03T01:03:21;19.10;99.90
20446;DHT22;10382;49.140;9.234;2022-09-03T01:05:59;19.10;99.90
20446;DHT22;10382;49.140;9.234;2022-09-03T01:08:43;19.20;99.90
20446;DHT22;10382;49.140;9.234;2022-09-03T01:11:23;19.20;99.90
20446;DHT22;10382;49.140;9.234;2022-09-03T01:13:58;19.30;99.90
20446;DHT22;10382;49.140;9.234;2022-09-03T01:16:35;19.30;99.90
20446;DHT22;10382;49.140;9.234;2022-09-03T01:19:15;19.40;99.90
20446;DHT22;10382;49.140;9.234;2022-09-03T01:22:07;19.40;99.90
20446;DHT22;10382;49.140;9.234;2022-09-03T01:25:11;19.40;99.90
20446;DHT22;10382;49.140;9.234;2022-09-03T01:27:45;19.40;99.90
20446;DHT22;10382;49.140;9.234;2022-09-03T01:30:17;19.30;99.90
20446;DHT22;10382;49.140;9.234;2022-09-03T01:32:49;19.30;99.90
20446;DHT22;10382;49.140;9.234;2022-09-03T01:35:25;19.30;99.90
20446;DHT22;10382;49.140;9.234;2022-09-03T01:38:08;19.30;99.90
20446;DHT22;10382;49.140;9.234;2022-09-03T01:40:44;19.30;99.90
20446;DHT22;10382;49.140;9.234;2022-09-03T01:43:31;19.30;99.90
20446;DHT22;10382;49.140;9.234;2022-09-03T01:46:06;19.30;99.90
20446;DHT22;10382;49.140;9.234;2022-09-03T01:48:41;19.30;99.90
20446;DHT22;10382;49.140;9.234;2022-09-03T01:51:17;19.30;99.90
20446;DHT22;10382;49.140;9.234;2022-09-03T01:59:50;19.10;99.90
20446;DHT22;10382;49.140;9.234;2022-09-03T02:02:22;19.20;99.90
20446;DHT22;10382;49.140;9.234;2022-09-03T02:05:02;19.20;99.90
20446;DHT22;10382;49.140;9.234;2022-09-03T02:07:35;19.20;99.90
20446;DHT22;10382;49.140;9.234;2022-09-03T02:10:05;19.20;99.90
20446;DHT22;10382;49.140;9.234;2022-09-03T02:12:33;19.10;99.90
20446;DHT22;10382;49.140;9.234;2022-09-03T02:15:05;19.20;99.90
20446;DHT22;10382;49.140;9.234;2022-09-03T02:17:35;19.20;99.90
20446;DHT22;10382;49.140;9.234;2022-09-03T02:20:06;19.20;99.90
20446;DHT22;10382;49.140;9.234;2022-09-03T02:22:36;19.20;99.90
20446;DHT22;10382;49.140;9.234;2022-09-03T02:25:04;19.20;99.90
20446;DHT22;10382;49.140;9.234;2022-09-03T02:27:31;19.30;99.90
20446;DHT22;10382;49.140;9.234;2022-09-03T02:29:58;19.30;99.90
20446;DHT22;10382;49.140;9.234;2022-09-03T02:32:25;19.30;99.90
20446;DHT22;10382;49.140;9.234;2022-09-03T02:34:54;19.30;99.90
20446;DHT22;10382;49.140;9.234;2022-09-03T02:37:21;19.40;99.90
20446;DHT22;10382;49.140;9.234;2022-09-03T02:39:48;19.40;99.90
20446;DHT22;10382;49.140;9.234;2022-09-03T02:42:16;19.30;99.90
20446;DHT22;10382;49.140;9.234;2022-09-03T02:44:47;19.00;99.90
20446;DHT22;10382;49.140;9.234;2022-09-03T02:47:14;18.70;99.90
20446;DHT22;10382;49.140;9.234;2022-09-03T02:49:42;18.50;99.90
20446;DHT22;10382;49.140;9.234;2022-09-03T02:52:12;18.30;99.90
20446;DHT22;10382;49.140;9.234;2022-09-03T02:54:40;18.30;99.90
20446;DHT22;10382;49.140;9.234;2022-09-03T02:57:08;18.40;99.90
20446;DHT22;10382;49.140;9.234;2022-09-03T02:59:35;18.40;99.90
20446;DHT22;10382;49.140;9.234;2022-09-03T03:02:02;18.50;99.90
20446;DHT22;10382;49.140;9.234;2022-09-03T03:04:30;18.50;99.90
20446;DHT22;10382;49.140;9.234;2022-09-03T03:06:58;18.50;99.90
20446;DHT22;10382;49.140;9.234;2022-09-03T03:09:26;18.60;99.90
20446;DHT22;10382;49.140;9.234;2022-09-03T03:11:53;18.70;99.90
20446;DHT22;10382;49.140;9.234;2022-09-03T03:14:21;18.80;99.90
20446;DHT22;10382;49.140;9.234;2022-09-03T03:16:48;18.90;99.90
20446;DHT22;10382;49.140;9.234;2022-09-03T03:19:15;19.00;99.90
20446;DHT22;10382;49.140;9.234;2022-09-03T03:21:42;19.10;99.90
20446;DHT22;10382;49.140;9.234;2022-09-03T03:24:09;19.20;99.90
20446;DHT22;10382;49.140;9.234;2022-09-03T03:26:38;19.40;99.90
20446;DHT22;10382;49.140;9.234;2022-09-03T03:29:05;19.40;99.90
20446;DHT22;10382;49.140;9.234;2022-09-03T03:31:33;19.40;99.90
20446;DHT22;10382;49.140;9.234;2022-09-03T03:34:01;19.40;99.90
20446;DHT22;10382;49.140;9.234;2022-09-03T03:36:30;19.30;99.90
20446;DHT22;10382;49.140;9.234;2022-09-03T03:38:58;19.20;99.90
20446;DHT22;10382;49.140;9.234;2022-09-03T03:41:27;19.20;99.90
20446;DHT22;10382;49.140;9.234;2022-09-03T03:43:58;19.20;99.90
20446;DHT22;10382;49.140;9.234;2022-09-03T03:46:29;19.20;99.90
20446;DHT22;10382;49.140;9.234;2022-09-03T03:48:57;19.20;99.90
20446;DHT22;10382;49.140;9.234;2022-09-03T03:51:24;19.10;99.90
20446;DHT22;10382;49.140;9.234;2022-09-03T03:53:53;19.10;99.90
20446;DHT22;10382;49.140;9.234;2022-09-03T03:56:22;19.00;99.90
20446;DHT22;10382;49.140;9.234;2022-09-03T03:58:49;18.90;99.90
20446;DHT22;10382;49.140;9.234;2022-09-03T04:01:19;18.80;99.90
20446;DHT22;10382;49.140;9.234;2022-09-03T04:03:47;18.80;99.90
20446;DHT22;10382;49.140;9.234;2022-09-03T04:06:15;18.70;99.90
20446;DHT22;10382;49.140;9.234;2022-09-03T04:08:44;18.70;99.90
20446;DHT22;10382;49.140;9.234;2022-09-03T04:11:12;18.80;99.90
20446;DHT22;10382;49.140;9.234;2022-09-03T04:13:40;18.80;99.90
20446;DHT22;10382;49.140;9.234;2022-09-03T04:16:09;18.80;99.90
20446;DHT22;10382;49.140;9.234;2022-09-03T04:18:38;18.80;99.90
20446;DHT22;10382;49.140;9.234;2022-09-03T04:21:07;18.80;99.90
20446;DHT22;10382;49.140;9.234;2022-09-03T04:23:36;18.80;99.90
20446;DHT22;10382;49.140;9.234;2022-09-03T04:26:03;18.80;99.90
20446;DHT22;10382;49.140;9.234;2022-09-03T04:28:31;18.90;99.90
20446;DHT22;10382;49.140;9.234;2022-09-03T04:31:00;19.00;99.90
20446;DHT22;10382;49.140;9.234;2022-09-03T04:33:27;19.10;99.90
20446;DHT22;10382;49.140;9.234;2022-09-03T04:36:05;19.10;99.90
20446;DHT22;10382;49.140;9.234;2022-09-03T04:38:33;19.20;99.90
20446;DHT22;10382;49.140;9.234;2022-09-03T04:41:00;19.20;99.90
20446;DHT22;10382;49.140;9.234;2022-09-03T04:43:28;19.30;99.90
20446;DHT22;10382;49.140;9.234;2022-09-03T04:45:56;19.30;99.90
20446;DHT22;10382;49.140;9.234;2022-09-03T04:48:24;19.30;99.90
20446;DHT22;10382;49.140;9.234;2022-09-03T04:50:51;19.30;99.90
20446;DHT22;10382;49.140;9.234;2022-09-03T04:53:19;19.40;99.90
20446;DHT22;10382;49.140;9.234;2022-09-03T04:55:47;19.40;99.90
20446;DHT22;10382;49.140;9.234;2022-09-03T04:58:14;19.20;99.90
20446;DHT22;10382;49.140;9.234;2022-09-03T05:00:40;19.20;99.90
20446;DHT22;10382;49.140;9.234;2022-09-03T05:03:07;19.20;99.90
20446;DHT22;10382;49.140;9.234;2022-09-03T05:05:34;19.20;99.90
20446;DHT22;10382;49.140;9.234;2022-09-03T05:08:02;19.30;99.90
20446;DHT22;10382;49.140;9.234;2022-09-03T05:10:32;19.40;99.90
20446;DHT22;10382;49.140;9.234;2022-09-03T05:13:00;19.40;99.90
20446;DHT22;10382;49.140;9.234;2022-09-03T05:15:27;19.50;99.90
20446;DHT22;10382;49.140;9.234;2022-09-03T05:17:57;19.50;99.90
20446;DHT22;10382;49.140;9.234;2022-09-03T05:20:25;19.60;99.90
20446;DHT22;10382;49.140;9.234;2022-09-03T05:22:52;19.60;99.90
20446;DHT22;10382;49.140;9.234;2022-09-03T05:25:19;19.70;99.90
20446;DHT22;10382;49.140;9.234;2022-09-03T05:27:48;19.70;99.90
20446;DHT22;10382;49.140;9.234;2022-09-03T05:30:16;19.80;99.90
20446;DHT22;10382;49.140;9.234;2022-09-03T05:32:43;19.80;99.90
20446;DHT22;10382;49.140;9.234;2022-09-03T05:35:10;19.80;99.90
20446;DHT22;10382;49.140;9.234;2022-09-03T05:37:37;19.90;99.90
20446;DHT22;10382;49.140;9.234;2022-09-03T05:40:05;19.90;99.90
20446;DHT22;10382;49.140;9.234;2022-09-03T05:42:35;20.00;99.90
20446;DHT22;10382;49.140;9.234;2022-09-03T05:45:06;20.10;99.90
20446;DHT22;10382;49.140;9.234;2022-09-03T05:47:36;20.20;99.90
20446;DHT22;10382;49.140;9.234;2022-09-03T05:50:05;20.30;99.90
20446;DHT22;10382;49.140;9.234;2022-09-03T05:52:33;20.30;99.90
20446;DHT22;10382;49.140;9.234;2022-09-03T05:55:00;20.40;99.90
20446;DHT22;10382;49.140;9.234;2022-09-03T05:57:27;20.40;99.90
20446;DHT22;10382;49.140;9.234;2022-09-03T05:59:55;20.50;99.90
20446;DHT22;10382;49.140;9.234;2022-09-03T06:02:23;20.70;99.90
20446;DHT22;10382;49.140;9.234;2022-09-03T06:04:50;20.80;99.90
20446;DHT22;10382;49.140;9.234;2022-09-03T06:07:19;20.90;99.90
20446;DHT22;10382;49.140;9.234;2022-09-03T06:09:45;21.10;99.90
20446;DHT22;10382;49.140;9.234;2022-09-03T06:12:12;21.10;99.90
20446;DHT22;10382;49.140;9.234;2022-09-03T06:14:39;21.20;99.90
20446;DHT22;10382;49.140;9.234;2022-09-03T06:17:06;21.40;99.90
20446;DHT22;10382;49.140;9.234;2022-09-03T06:19:37;21.60;99.90
20446;DHT22;10382;49.140;9.234;2022-09-03T06:22:04;21.90;99.90
20446;DHT22;10382;49.140;9.234;2022-09-03T06:24:31;22.30;99.90
20446;DHT22;10382;49.140;9.234;2022-09-03T06:26:57;22.70;99.90
20446;DHT22;10382;49.140;9.234;2022-09-03T06:29:24;23.20;99.90
20446;DHT22;10382;49.140;9.234;2022-09-03T06:31:52;23.60;99.90
20446;DHT22;10382;49.140;9.234;2022-09-03T06:34:19;23.90;99.90
20446;DHT22;10382;49.140;9.234;2022-09-03T06:36:48;24.00;99.90
20446;DHT22;10382;49.140;9.234;2022-09-03T06:39:15;24.00;99.90
20446;DHT22;10382;49.140;9.234;2022-09-03T06:41:42;24.00;99.90
20446;DHT22;10382;49.140;9.234;2022-09-03T06:44:10;23.90;99.90
20446;DHT22;10382;49.140;9.234;2022-09-03T06:46:38;23.90;99.90
20446;DHT22;10382;49.140;9.234;2022-09-03T06:49:07;24.10;99.80
20446;DHT22;10382;49.140;9.234;2022-09-03T06:51:35;24.30;98.90
20446;DHT22;10382;49.140;9.234;2022-09-03T06:54:05;24.50;98.60
20446;DHT22;10382;49.140;9.234;2022-09-03T06:56:33;24.60;98.70
20446;DHT22;10382;49.140;9.234;2022-09-03T06:59:04;24.50;97.90
20446;DHT22;10382;49.140;9.234;2022-09-03T07:01:33;24.50;97.70
20446;DHT22;10382;49.140;9.234;2022-09-03T07:04:01;24.40;97.70
20446;DHT22;10382;49.140;9.234;2022-09-03T07:06:30;24.40;97.50
20446;DHT22;10382;49.140;9.234;2022-09-03T07:08:58;24.50;97.40
20446;DHT22;10382;49.140;9.234;2022-09-03T07:11:27;24.40;96.70
20446;DHT22;10382;49.140;9.234;2022-09-03T07:13:57;24.40;96.80
20446;DHT22;10382;49.140;9.234;2022-09-03T07:16:25;24.30;96.60
20446;DHT22;10382;49.140;9.234;2022-09-03T07:18:53;24.20;96.90
20446;DHT22;10382;49.140;9.234;2022-09-03T07:21:21;24.00;96.90
20446;DHT22;10382;49.140;9.234;2022-09-03T07:23:49;23.90;97.00
20446;DHT22;10382;49.140;9.234;2022-09-03T07:26:18;23.80;97.60
20446;DHT22;10382;49.140;9.234;2022-09-03T07:28:47;23.80;97.80
20446;DHT22;10382;49.140;9.234;2022-09-03T07:31:16;23.70;97.60
20446;DHT22;10382;49.140;9.234;2022-09-03T07:33:44;23.70;97.80
20446;DHT22;10382;49.140;9.234;2022-09-03T07:36:13;23.60;98.30
20446;DHT22;10382;49.140;9.234;2022-09-03T07:38:41;23.70;98.10
20446;DHT22;10382;49.140;9.234;2022-09-03T07:41:10;23.70;98.80
20446;DHT22;10382;49.140;9.234;2022-09-03T07:43:38;23.80;99.70
20446;DHT22;10382;49.140;9.234;2022-09-03T07:46:09;23.90;99.80
20446;DHT22;10382;49.140;9.234;2022-09-03T07:48:37;24.00;98.60
20446;DHT22;10382;49.140;9.234;2022-09-03T07:51:05;24.00;99.10
20446;DHT22;10382;49.140;9.234;2022-09-03T07:53:32;24.00;99.70
20446;DHT22;10382;49.140;9.234;2022-09-03T07:56:03;23.90;99.90
20446;DHT22;10382;49.140;9.234;2022-09-03T07:58:31;23.90;99.90
20446;DHT22;10382;49.140;9.234;2022-09-03T08:01:02;23.80;99.90
20446;DHT22;10382;49.140;9.234;2022-09-03T08:03:30;23.70;99.90
20446;DHT22;10382;49.140;9.234;2022-09-03T08:06:00;23.70;99.90
20446;DHT22;10382;49.140;9.234;2022-09-03T08:08:28;23.70;99.90
20446;DHT22;10382;49.140;9.234;2022-09-03T08:11:02;23.60;99.90
20446;DHT22;10382;49.140;9.234;2022-09-03T08:13:29;23.60;99.90
20446;DHT22;10382;49.140;9.234;2022-09-03T08:15:58;23.60;99.90
20446;DHT22;10382;49.140;9.234;2022-09-03T08:18:26;23.60;99.90
20446;DHT22;10382;49.140;9.234;2022-09-03T08:21:01;23.70;99.90
20446;DHT22;10382;49.140;9.234;2022-09-03T08:23:28;23.80;99.90
20446;DHT22;10382;49.140;9.234;2022-09-03T08:25:57;23.90;99.90
20446;DHT22;10382;49.140;9.234;2022-09-03T08:28:25;24.00;99.90
20446;DHT22;10382;49.140;9.234;2022-09-03T08:30:52;24.30;99.90
20446;DHT22;10382;49.140;9.234;2022-09-03T08:33:19;24.60;99.90
20446;DHT22;10382;49.140;9.234;2022-09-03T08:36:03;24.90;99.90
20446;DHT22;10382;49.140;9.234;2022-09-03T08:38:31;25.30;99.90
20446;DHT22;10382;49.140;9.234;2022-09-03T08:41:06;25.70;99.90
20446;DHT22;10382;49.140;9.234;2022-09-03T08:43:47;26.10;99.50
20446;DHT22;10382;49.140;9.234;2022-09-03T08:46:18;26.50;97.90
20446;DHT22;10382;49.140;9.234;2022-09-03T08:48:46;26.30;96.80
20446;DHT22;10382;49.140;9.234;2022-09-03T08:51:16;26.00;96.80
20446;DHT22;10382;49.140;9.234;2022-09-03T08:53:47;25.60;97.30
20446;DHT22;10382;49.140;9.234;2022-09-03T08:56:23;25.40;98.00
20446;DHT22;10382;49.140;9.234;2022-09-03T08:58:51;25.30;98.10
20446;DHT22;10382;49.140;9.234;2022-09-03T09:01:29;25.30;98.20
20446;DHT22;10382;49.140;9.234;2022-09-03T09:04:07;25.60;98.60
20446;DHT22;10382;49.140;9.234;2022-09-03T09:06:42;26.00;98.20
20446;DHT22;10382;49.140;9.234;2022-09-03T09:09:21;26.30;97.00
20446;DHT22;10382;49.140;9.234;2022-09-03T09:11:56;26.40;96.70
20446;DHT22;10382;49.140;9.234;2022-09-03T09:14:30;26.30;96.30
20446;DHT22;10382;49.140;9.234;2022-09-03T09:17:05;26.20;96.30
20446;DHT22;10382;49.140;9.234;2022-09-03T09:19:41;26.20;96.30
20446;DHT22;10382;49.140;9.234;2022-09-03T09:22:21;26.10;96.70
20446;DHT22;10382;49.140;9.234;2022-09-03T09:24:52;26.10;96.70
20446;DHT22;10382;49.140;9.234;2022-09-03T09:27:20;26.10;96.60
20446;DHT22;10382;49.140;9.234;2022-09-03T09:29:49;26.00;96.60
20446;DHT22;10382;49.140;9.234;2022-09-03T09:32:18;25.90;97.10
20446;DHT22;10382;49.140;9.234;2022-09-03T09:34:45;25.90;97.30
20446;DHT22;10382;49.140;9.234;2022-09-03T09:37:14;26.00;96.60
20446;DHT22;10382;49.140;9.234;2022-09-03T09:39:54;26.00;96.70
20446;DHT22;10382;49.140;9.234;2022-09-03T09:42:23;25.60;97.40
20446;DHT22;10382;49.140;9.234;2022-09-03T09:44:50;25.20;98.70
20446;DHT22;10382;49.140;9.234;2022-09-03T09:47:21;25.10;99.10
20446;DHT22;10382;49.140;9.234;2022-09-03T09:49:52;24.90;99.00
20446;DHT22;10382;49.140;9.234;2022-09-03T09:52:21;24.90;99.10
20446;DHT22;10382;49.140;9.234;2022-09-03T09:54:52;25.00;99.30
20446;DHT22;10382;49.140;9.234;2022-09-03T09:57:22;25.00;99.30
20446;DHT22;10382;49.140;9.234;2022-09-03T10:00:01;25.10;99.90
20446;DHT22;10382;49.140;9.234;2022-09-03T10:02:34;25.30;99.90
20446;DHT22;10382;49.140;9.234;2022-09-03T10:05:12;25.40;99.90
20446;DHT22;10382;49.140;9.234;2022-09-03T10:07:40;25.50;99.90
20446;DHT22;10382;49.140;9.234;2022-09-03T10:10:16;25.70;99.90
20446;DHT22;10382;49.140;9.234;2022-09-03T10:12:49;26.20;99.90
20446;DHT22;10382;49.140;9.234;2022-09-03T10:15:22;26.70;98.80
20446;DHT22;10382;49.140;9.234;2022-09-03T10:18:02;26.90;98.80
20446;DHT22;10382;49.140;9.234;2022-09-03T10:20:35;27.20;97.80
20446;DHT22;10382;49.140;9.234;2022-09-03T10:23:09;27.10;98.10
20446;DHT22;10382;49.140;9.234;2022-09-03T10:25:53;26.90;99.10
20446;DHT22;10382;49.140;9.234;2022-09-03T10:28:26;27.00;98.20
20446;DHT22;10382;49.140;9.234;2022-09-03T10:31:12;26.90;97.80
20446;DHT22;10382;49.140;9.234;2022-09-03T10:33:47;26.90;98.50
20446;DHT22;10382;49.140;9.234;2022-09-03T10:36:19;27.30;98.10
20446;DHT22;10382;49.140;9.234;2022-09-03T10:38:52;27.40;97.50
20446;DHT22;10382;49.140;9.234;2022-09-03T10:41:31;27.30;97.00
20446;DHT22;10382;49.140;9.234;2022-09-03T10:44:27;27.50;97.00
20446;DHT22;10382;49.140;9.234;2022-09-03T10:47:11;27.90;96.00
20446;DHT22;10382;49.140;9.234;2022-09-03T10:49:48;28.40;95.90
20446;DHT22;10382;49.140;9.234;2022-09-03T10:52:25;29.00;94.60
20446;DHT22;10382;49.140;9.234;2022-09-03T10:55:02;29.20;94.00
20446;DHT22;10382;49.140;9.234;2022-09-03T10:57:42;29.00;94.00
20446;DHT22;10382;49.140;9.234;2022-09-03T11:00:12;29.40;94.20
20446;DHT22;10382;49.140;9.234;2022-09-03T11:06:00;30.10;92.50
20446;DHT22;10382;49.140;9.234;2022-09-03T11:08:31;30.50;92.10
20446;DHT22;10382;49.140;9.234;2022-09-03T11:11:08;30.80;90.90
20446;DHT22;10382;49.140;9.234;2022-09-03T11:13:43;30.70;90.20
20446;DHT22;10382;49.140;9.234;2022-09-03T11:16:14;30.60;89.70
20446;DHT22;10382;49.140;9.234;2022-09-03T11:18:47;30.40;89.40
20446;DHT22;10382;49.140;9.234;2022-09-03T11:21:18;30.30;89.70
20446;DHT22;10382;49.140;9.234;2022-09-03T11:23:49;30.40;90.40
20446;DHT22;10382;49.140;9.234;2022-09-03T11:26:18;30.60;89.40
20446;DHT22;10382;49.140;9.234;2022-09-03T11:28:53;31.00;88.70
20446;DHT22;10382;49.140;9.234;2022-09-03T11:31:30;31.40;87.10
20446;DHT22;10382;49.140;9.234;2022-09-03T11:34:05;31.80;86.10
20446;DHT22;10382;49.140;9.234;2022-09-03T11:36:34;32.20;84.10
20446;DHT22;10382;49.140;9.234;2022-09-03T11:39:12;32.80;82.70
20446;DHT22;10382;49.140;9.234;2022-09-03T11:41:41;33.20;80.10
20446;DHT22;10382;49.140;9.234;2022-09-03T11:44:16;33.30;76.80
20446;DHT22;10382;49.140;9.234;2022-09-03T11:46:52;32.90;76.80
20446;DHT22;10382;49.140;9.234;2022-09-03T11:49:27;32.70;78.20
20446;DHT22;10382;49.140;9.234;2022-09-03T11:51:58;32.70;76.90
20446;DHT22;10382;49.140;9.234;2022-09-03T11:54:26;32.50;76.10
20446;DHT22;10382;49.140;9.234;2022-09-03T11:57:08;32.30;75.80
20446;DHT22;10382;49.140;9.234;2022-09-03T11:59:39;32.30;75.80
20446;DHT22;10382;49.140;9.234;2022-09-03T12:02:22;32.20;75.30
20446;DHT22;10382;49.140;9.234;2022-09-03T12:05:02;32.00;75.60
20446;DHT22;10382;49.140;9.234;2022-09-03T12:08:12;31.80;74.60
20446;DHT22;10382;49.140;9.234;2022-09-03T12:10:50;31.50;74.70
20446;DHT22;10382;49.140;9.234;2022-09-03T12:13:35;31.30;75.40
20446;DHT22;10382;49.140;9.234;2022-09-03T12:16:21;31.00;75.20
20446;DHT22;10382;49.140;9.234;2022-09-03T12:18:53;30.50;75.50
20446;DHT22;10382;49.140;9.234;2022-09-03T12:21:22;30.20;77.10
20446;DHT22;10382;49.140;9.234;2022-09-03T12:23:50;29.80;76.90
20446;DHT22;10382;49.140;9.234;2022-09-03T12:26:20;29.40;79.20
20446;DHT22;10382;49.140;9.234;2022-09-03T12:28:49;29.20;79.90
20446;DHT22;10382;49.140;9.234;2022-09-03T12:31:19;29.00;80.90
20446;DHT22;10382;49.140;9.234;2022-09-03T12:33:49;28.80;81.20
20446;DHT22;10382;49.140;9.234;2022-09-03T12:36:19;28.70;81.20
20446;DHT22;10382;49.140;9.234;2022-09-03T12:38:46;28.50;81.20
20446;DHT22;10382;49.140;9.234;2022-09-03T12:41:24;28.30;81.90
20446;DHT22;10382;49.140;9.234;2022-09-03T12:43:53;28.00;82.50
20446;DHT22;10382;49.140;9.234;2022-09-03T12:46:27;27.70;84.40
20446;DHT22;10382;49.140;9.234;2022-09-03T12:48:55;27.50;86.60
20446;DHT22;10382;49.140;9.234;2022-09-03T12:51:30;27.30;86.60
20446;DHT22;10382;49.140;9.234;2022-09-03T12:53:58;27.20;88.20
20446;DHT22;10382;49.140;9.234;2022-09-03T12:56:25;27.10;88.70
20446;DHT22;10382;49.140;9.234;2022-09-03T12:58:58;27.10;89.80
20446;DHT22;10382;49.140;9.234;2022-09-03T13:01:29;26.90;90.40
20446;DHT22;10382;49.140;9.234;2022-09-03T13:04:04;26.60;91.20
20446;DHT22;10382;49.140;9.234;2022-09-03T13:06:39;26.50;91.90
20446;DHT22;10382;49.140;9.234;2022-09-03T13:09:08;26.40;92.20
20446;DHT22;10382;49.140;9.234;2022-09-03T13:11:36;26.40;93.10
20446;DHT22;10382;49.140;9.234;2022-09-03T13:14:06;26.50;93.30
20446;DHT22;10382;49.140;9.234;2022-09-03T13:19:40;26.60;93.70
20446;DHT22;10382;49.140;9.234;2022-09-03T13:22:15;26.80;93.80
20446;DHT22;10382;49.140;9.234;2022-09-03T13:25:02;27.20;93.60
20446;DHT22;10382;49.140;9.234;2022-09-03T13:27:41;27.70;93.10
20446;DHT22;10382;49.140;9.234;2022-09-03T13:30:11;28.20;91.70
20446;DHT22;10382;49.140;9.234;2022-09-03T13:32:50;28.70;91.10
20446;DHT22;10382;49.140;9.234;2022-09-03T13:35:26;29.00;90.60
20446;DHT22;10382;49.140;9.234;2022-09-03T13:37:57;29.30;90.10
20446;DHT22;10382;49.140;9.234;2022-09-03T13:40:35;29.70;88.80
20446;DHT22;10382;49.140;9.234;2022-09-03T13:43:11;29.90;87.50
20446;DHT22;10382;49.140;9.234;2022-09-03T13:45:50;29.90;86.80
20446;DHT22;10382;49.140;9.234;2022-09-03T13:48:23;29.90;86.30
20446;DHT22;10382;49.140;9.234;2022-09-03T13:51:12;29.90;86.30
20446;DHT22;10382;49.140;9.234;2022-09-03T13:53:48;29.50;88.30
20446;DHT22;10382;49.140;9.234;2022-09-03T13:56:24;29.40;88.60
20446;DHT22;10382;49.140;9.234;2022-09-03T13:58:57;29.60;90.20
20446;DHT22;10382;49.140;9.234;2022-09-03T14:01:38;28.90;92.10
20446;DHT22;10382;49.140;9.234;2022-09-03T14:04:16;28.50;92.80
20446;DHT22;10382;49.140;9.234;2022-09-03T14:06:54;27.60;94.80
20446;DHT22;10382;49.140;9.234;2022-09-03T14:09:29;26.90;96.50
20446;DHT22;10382;49.140;9.234;2022-09-03T14:12:02;26.50;97.90
20446;DHT22;10382;49.140;9.234;2022-09-03T14:14:39;26.00;99.40
20446;DHT22;10382;49.140;9.234;2022-09-03T14:17:12;25.50;99.90
20446;DHT22;10382;49.140;9.234;2022-09-03T14:19:47;25.20;99.90
20446;DHT22;10382;49.140;9.234;2022-09-03T14:22:17;24.80;99.90
20446;DHT22;10382;49.140;9.234;2022-09-03T14:24:50;24.60;99.90
20446;DHT22;10382;49.140;9.234;2022-09-03T14:27:26;24.30;99.90
20446;DHT22;10382;49.140;9.234;2022-09-03T14:29:57;24.10;99.90
20446;DHT22;10382;49.140;9.234;2022-09-03T14:32:38;23.90;99.90
20446;DHT22;10382;49.140;9.234;2022-09-03T14:35:20;23.80;99.90
20446;DHT22;10382;49.140;9.234;2022-09-03T14:38:20;23.50;99.90
20446;DHT22;10382;49.140;9.234;2022-09-03T14:40:55;23.30;99.90
20446;DHT22;10382;49.140;9.234;2022-09-03T14:46:35;22.80;99.90
20446;DHT22;10382;49.140;9.234;2022-09-03T14:49:19;22.70;99.90
20446;DHT22;10382;49.140;9.234;2022-09-03T14:52:00;22.70;99.90
20446;DHT22;10382;49.140;9.234;2022-09-03T14:57:41;22.40;99.90
20446;DHT22;10382;49.140;9.234;2022-09-03T15:00:14;22.20;99.90
20446;DHT22;10382;49.140;9.234;2022-09-03T15:03:01;22.20;99.90
20446;DHT22;10382;49.140;9.234;2022-09-03T15:05:41;22.20;99.90
20446;DHT22;10382;49.140;9.234;2022-09-03T15:08:21;22.20;99.90
20446;DHT22;10382;49.140;9.234;2022-09-03T15:10:54;22.20;99.90
20446;DHT22;10382;49.140;9.234;2022-09-03T15:13:26;22.00;99.90
20446;DHT22;10382;49.140;9.234;2022-09-03T15:16:07;22.00;99.90
20446;DHT22;10382;49.140;9.234;2022-09-03T15:18:47;21.90;99.90
20446;DHT22;10382;49.140;9.234;2022-09-03T15:21:23;21.90;99.90
20446;DHT22;10382;49.140;9.234;2022-09-03T15:24:01;21.80;99.90
20446;DHT22;10382;49.140;9.234;2022-09-03T15:26:46;21.60;99.90
20446;DHT22;10382;49.140;9.234;2022-09-03T15:29:28;21.50;99.90
20446;DHT22;10382;49.140;9.234;2022-09-03T15:32:04;21.40;99.90
20446;DHT22;10382;49.140;9.234;2022-09-03T15:34:46;21.40;99.90
20446;DHT22;10382;49.140;9.234;2022-09-03T15:37:18;21.30;99.90
20446;DHT22;10382;49.140;9.234;2022-09-03T15:39:58;21.40;99.90
20446;DHT22;10382;49.140;9.234;2022-09-03T15:42:27;21.50;99.90
20446;DHT22;10382;49.140;9.234;2022-09-03T15:44:59;21.60;99.90
20446;DHT22;10382;49.140;9.234;2022-09-03T15:47:33;21.80;99.90
20446;DHT22;10382;49.140;9.234;2022-09-03T15:50:05;21.90;99.90
20446;DHT22;10382;49.140;9.234;2022-09-03T15:52:46;22.00;99.90
20446;DHT22;10382;49.140;9.234;2022-09-03T15:55:26;22.20;99.90
20446;DHT22;10382;49.140;9.234;2022-09-03T15:57:59;22.40;99.90
20446;DHT22;10382;49.140;9.234;2022-09-03T16:00:44;22.70;99.90
20446;DHT22;10382;49.140;9.234;2022-09-03T16:03:19;23.00;99.90
20446;DHT22;10382;49.140;9.234;2022-09-03T16:05:53;23.30;99.90
20446;DHT22;10382;49.140;9.234;2022-09-03T16:08:24;23.50;99.90
20446;DHT22;10382;49.140;9.234;2022-09-03T16:11:02;23.60;99.90
20446;DHT22;10382;49.140;9.234;2022-09-03T16:13:42;23.60;99.90
20446;DHT22;10382;49.140;9.234;2022-09-03T16:16:13;23.60;99.90
20446;DHT22;10382;49.140;9.234;2022-09-03T16:18:45;23.30;99.90
20446;DHT22;10382;49.140;9.234;2022-09-03T16:21:23;23.20;99.90
20446;DHT22;10382;49.140;9.234;2022-09-03T16:23:55;23.20;99.90